createdAt,value
2022-11-24T00:05:08.172Z,3.20
2022-11-24T00:10:25.624Z,3.10
2022-11-24T00:15:43.016Z,3.20
2022-11-24T00:21:00.500Z,3.30
2022-11-24T00:26:20.256Z,3.50
2022-11-24T00:31:41.629Z,3.60
2022-11-24T00:36:59.190Z,3.60
2022-11-24T00:42:17.230Z,3.40
2022-11-24T00:47:34.673Z,3.30
2022-11-24T00:52:52.109Z,2.90
2022-11-24T00:58:09.508Z,2.80
2022-11-24T01:03:26.953Z,2.60
2022-11-24T01:08:44.863Z,2.50
2022-11-24T01:14:02.280Z,2.60
2022-11-24T01:19:20.076Z,2.90
2022-11-24T01:24:37.494Z,3.20
2022-11-24T01:29:54.908Z,3.10
2022-11-24T01:35:12.343Z,2.70
2022-11-24T01:40:30.204Z,2.60
2022-11-24T01:45:48.472Z,2.60
2022-11-24T01:51:13.193Z,2.80
2022-11-24T01:56:32.886Z,3.00
2022-11-24T02:01:53.119Z,3.10
2022-11-24T02:07:12.843Z,3.20
2022-11-24T02:12:30.844Z,3.10
2022-11-24T02:17:48.243Z,3.20
2022-11-24T02:23:17.397Z,3.10
2022-11-24T02:28:34.886Z,2.90
2022-11-24T02:33:52.396Z,3.00
2022-11-24T02:39:14.167Z,2.90
2022-11-24T02:44:38.100Z,2.80
2022-11-24T02:49:55.527Z,2.80
2022-11-24T02:55:12.942Z,3.10
2022-11-24T03:00:30.343Z,3.00
2022-11-24T03:05:47.823Z,3.10
2022-11-24T03:11:05.350Z,3.30
2022-11-24T03:16:22.961Z,3.20
2022-11-24T03:21:40.553Z,3.30
2022-11-24T03:26:57.895Z,2.90
2022-11-24T03:32:15.329Z,3.00
2022-11-24T03:37:32.787Z,3.10
2022-11-24T03:42:50.228Z,3.10
2022-11-24T03:48:08.409Z,3.00
2022-11-24T03:53:28.084Z,3.00
2022-11-24T03:58:45.536Z,2.90
2022-11-24T04:04:02.959Z,2.90
2022-11-24T04:09:20.401Z,3.00
2022-11-24T04:14:38.024Z,2.90
2022-11-24T04:19:55.703Z,2.90
2022-11-24T04:25:13.527Z,3.00
2022-11-24T04:30:31.025Z,3.20
2022-11-24T04:35:48.405Z,3.10
2022-11-24T04:41:06.228Z,3.10
2022-11-24T04:46:23.716Z,3.00
2022-11-24T04:51:41.766Z,2.90
2022-11-24T04:56:59.195Z,2.90
2022-11-24T05:02:16.702Z,3.20
2022-11-24T05:07:35.032Z,3.20
2022-11-24T05:12:59.705Z,3.10
2022-11-24T05:18:17.238Z,3.20
2022-11-24T05:23:34.649Z,3.20
2022-11-24T05:28:52.101Z,3.20
2022-11-24T05:34:10.261Z,3.20
2022-11-24T05:39:27.647Z,3.10
2022-11-24T05:44:45.001Z,3.10
2022-11-24T05:50:02.420Z,3.10
2022-11-24T05:55:19.939Z,3.00
2022-11-24T06:00:37.405Z,3.10
2022-11-24T06:05:54.845Z,3.10
2022-11-24T06:11:18.105Z,3.00
2022-11-24T06:16:35.514Z,3.00
2022-11-24T06:21:53.001Z,3.10
2022-11-24T06:27:10.462Z,3.10
2022-11-24T06:32:28.015Z,2.80
2022-11-24T06:37:46.094Z,2.80
2022-11-24T06:43:03.470Z,2.90
2022-11-24T06:48:20.972Z,2.90
2022-11-24T06:53:39.371Z,3.00
2022-11-24T06:58:56.781Z,2.90
2022-11-24T07:04:15.138Z,3.10
2022-11-24T07:09:32.612Z,2.90
2022-11-24T07:14:50.074Z,3.10
2022-11-24T07:20:09.138Z,3.20
2022-11-24T07:25:26.742Z,3.20
2022-11-24T07:30:44.162Z,3.20
2022-11-24T07:36:02.622Z,3.30
2022-11-24T07:41:20.939Z,3.20
2022-11-24T07:46:38.390Z,3.20
2022-11-24T07:51:55.934Z,3.50
2022-11-24T07:57:13.408Z,3.60
2022-11-24T08:02:30.888Z,3.60
2022-11-24T08:07:48.460Z,3.60
2022-11-24T08:13:06.008Z,3.50
2022-11-24T08:18:24.732Z,3.60
2022-11-24T08:23:42.787Z,3.70
2022-11-24T08:29:00.399Z,3.80
2022-11-24T08:34:18.057Z,3.80
2022-11-24T08:39:35.473Z,3.70
2022-11-24T08:44:58.854Z,3.80
2022-11-24T08:50:17.040Z,3.90
2022-11-24T08:55:34.494Z,3.90
2022-11-24T09:00:51.956Z,4.00
2022-11-24T09:06:10.234Z,4.00
2022-11-24T09:11:28.459Z,4.10
2022-11-24T09:16:45.951Z,4.40
2022-11-24T09:22:03.967Z,4.30
2022-11-24T09:27:21.377Z,4.30
2022-11-24T09:32:38.763Z,4.20
2022-11-24T09:37:56.130Z,4.60
2022-11-24T09:43:21.902Z,4.80
2022-11-24T09:48:47.736Z,4.50
2022-11-24T09:54:16.865Z,4.40
2022-11-24T09:59:34.497Z,4.30
2022-11-24T10:04:54.652Z,4.60
2022-11-24T10:10:22.922Z,5.10
2022-11-24T10:15:48.528Z,5.40
2022-11-24T10:21:26.918Z,5.00
2022-11-24T10:27:10.554Z,4.90
2022-11-24T10:32:35.642Z,5.60
2022-11-24T10:37:53.109Z,5.60
2022-11-24T10:43:12.354Z,5.90
2022-11-24T10:48:44.216Z,5.50
2022-11-24T10:54:28.329Z,5.70
2022-11-24T10:59:45.749Z,5.40
2022-11-24T11:05:24.680Z,5.10
2022-11-24T11:10:43.962Z,5.20
2022-11-24T11:16:01.892Z,5.50
2022-11-24T11:21:31.890Z,5.70
2022-11-24T11:27:03.915Z,5.60
2022-11-24T11:38:06.927Z,5.80
2022-11-24T11:43:37.834Z,6.20
2022-11-24T11:48:55.310Z,6.30
2022-11-24T11:54:35.061Z,6.30
2022-11-24T12:00:16.003Z,6.00
2022-11-24T12:06:00.897Z,6.00
2022-11-24T12:11:27.748Z,6.10
2022-11-24T12:17:32.736Z,6.10
2022-11-24T12:23:26.853Z,6.20
2022-11-24T12:28:44.238Z,6.30
2022-11-24T12:34:20.117Z,6.20
2022-11-24T12:39:53.252Z,6.10
2022-11-24T12:45:13.326Z,6.10
2022-11-24T12:50:34.338Z,6.40
2022-11-24T12:55:52.072Z,6.20
2022-11-24T13:01:36.458Z,6.10
2022-11-24T13:07:20.238Z,6.40
2022-11-24T13:12:57.644Z,6.20
2022-11-24T13:18:53.683Z,6.50
2022-11-24T13:24:17.625Z,6.40
2022-11-24T13:29:37.846Z,6.30
2022-11-24T13:35:02.493Z,6.20
2022-11-24T13:40:22.914Z,6.30
2022-11-24T13:45:41.023Z,6.40
2022-11-24T13:50:58.693Z,6.60
2022-11-24T13:56:16.066Z,6.70
2022-11-24T14:01:36.868Z,6.70
2022-11-24T14:06:59.001Z,6.70
2022-11-24T14:12:22.844Z,6.70
2022-11-24T14:17:40.324Z,6.50
2022-11-24T14:22:57.858Z,6.40
2022-11-24T14:28:27.738Z,6.40
2022-11-24T14:33:45.253Z,6.30
2022-11-24T14:39:02.808Z,6.30
2022-11-24T14:44:42.506Z,6.10
2022-11-24T14:50:11.657Z,6.10
2022-11-24T14:55:35.463Z,6.00
2022-11-24T15:01:11.615Z,5.80
2022-11-24T15:06:29.190Z,5.80
2022-11-24T15:11:46.760Z,5.60
2022-11-24T15:17:05.031Z,5.40
2022-11-24T15:22:43.812Z,5.20
2022-11-24T15:28:01.571Z,5.20
2022-11-24T15:33:20.768Z,5.10
2022-11-24T15:38:38.190Z,5.20
2022-11-24T15:43:59.389Z,5.00
2022-11-24T15:49:16.825Z,5.00
2022-11-24T15:54:34.495Z,5.00
2022-11-24T15:59:53.409Z,4.90
2022-11-24T16:05:12.620Z,4.60
2022-11-24T16:10:36.192Z,4.50
2022-11-24T16:15:53.873Z,4.40
2022-11-24T16:21:11.768Z,4.50
2022-11-24T16:26:29.154Z,4.40
2022-11-24T16:31:47.438Z,4.40
2022-11-24T16:37:04.949Z,4.20
2022-11-24T16:42:22.403Z,4.10
2022-11-24T16:47:41.294Z,4.10
2022-11-24T16:52:58.711Z,4.10
2022-11-24T16:58:16.159Z,4.10
2022-11-24T17:03:34.494Z,3.90
2022-11-24T17:08:51.997Z,3.70
2022-11-24T17:14:10.752Z,3.50
2022-11-24T17:19:28.561Z,3.30
2022-11-24T17:24:46.013Z,3.30
2022-11-24T17:30:03.600Z,3.40
2022-11-24T17:35:21.029Z,3.30
2022-11-24T17:40:38.503Z,3.40
2022-11-24T17:45:57.977Z,3.50
2022-11-24T17:51:18.213Z,3.60
2022-11-24T17:56:35.749Z,3.60
2022-11-24T18:01:53.307Z,3.50
2022-11-24T18:07:11.008Z,3.40
2022-11-24T18:12:28.493Z,3.10
2022-11-24T18:17:46.003Z,2.90
2022-11-24T18:23:05.886Z,3.00
2022-11-24T18:28:23.731Z,3.10
2022-11-24T18:33:43.183Z,3.10
2022-11-24T18:39:01.563Z,3.10
2022-11-24T18:44:19.084Z,3.40
2022-11-24T18:49:36.553Z,3.40
2022-11-24T18:54:54.036Z,3.30
2022-11-24T19:00:12.171Z,3.40
2022-11-24T19:05:29.608Z,3.10
2022-11-24T19:10:49.528Z,3.10
2022-11-24T19:16:12.506Z,3.00
2022-11-24T19:21:38.158Z,2.90
2022-11-24T19:26:55.645Z,3.10
2022-11-24T19:32:13.116Z,3.10
2022-11-24T19:37:30.663Z,3.20
2022-11-24T19:42:48.109Z,3.00
2022-11-24T19:48:05.734Z,2.70
2022-11-24T19:53:23.221Z,2.70
2022-11-24T19:58:41.664Z,2.80
2022-11-24T20:04:00.276Z,2.80
2022-11-24T20:09:18.783Z,2.80
2022-11-24T20:14:36.571Z,2.80
2022-11-24T20:19:54.203Z,3.00
2022-11-24T20:25:11.739Z,3.20
2022-11-24T20:30:29.238Z,3.30
2022-11-24T20:35:46.668Z,3.10
2022-11-24T20:41:13.028Z,3.00
2022-11-24T20:46:32.346Z,2.90
2022-11-24T20:51:54.624Z,2.90
2022-11-24T20:57:12.054Z,3.00
2022-11-24T21:02:29.554Z,3.00
2022-11-24T21:07:47.150Z,3.00
2022-11-24T21:13:04.683Z,3.10
2022-11-24T21:18:22.899Z,3.10
2022-11-24T21:23:40.690Z,3.10
2022-11-24T21:28:58.510Z,3.20
2022-11-24T21:34:18.747Z,3.30
2022-11-24T21:39:36.700Z,3.20
2022-11-24T21:44:54.333Z,3.20
2022-11-24T21:50:11.979Z,3.30
2022-11-24T21:55:29.454Z,3.20
2022-11-24T22:00:46.931Z,3.30
2022-11-24T22:06:04.870Z,3.20
2022-11-24T22:11:24.584Z,3.30
2022-11-24T22:16:42.125Z,3.30
2022-11-24T22:21:59.605Z,3.40
2022-11-24T22:27:17.008Z,3.30
2022-11-24T22:32:34.380Z,3.30
2022-11-24T22:37:52.209Z,3.30
2022-11-24T22:43:09.628Z,3.30
2022-11-24T22:48:27.609Z,3.40
2022-11-24T22:53:49.621Z,3.50
2022-11-24T22:59:07.136Z,3.50
2022-11-24T23:04:24.560Z,3.60
2022-11-24T23:09:42.156Z,3.70
2022-11-24T23:14:59.555Z,3.80
2022-11-24T23:20:17.151Z,3.60
2022-11-24T23:25:34.919Z,3.60
2022-11-24T23:30:52.420Z,3.80
2022-11-24T23:36:12.654Z,3.70
2022-11-24T23:41:30.915Z,3.80
2022-11-24T23:46:48.433Z,3.30
2022-11-24T23:52:05.866Z,3.30
2022-11-24T23:57:23.244Z,3.20
